Time;durP1;ratioP1;P1;durP2;ratioP2;P2;SDS_P1;SDS_P2;PMS_P1;PMS_P2;Temp;Humidity;BMP_temperature;BMP_pressure;BME280_temperature;BME280_humidity;BME280_pressure;Samples;Min_cycle;Max_cycle;Signal;HPM_P1;HPM_P2
2023/03/19 00:00:10;;;;;;;;;;;13.00;99.90;;;;;;6277369;22;19914;-80
2023/03/19 00:02:36;;;;;;;;;;;12.90;99.90;;;;;;6277923;22;19907;-81
2023/03/19 00:05:01;;;;;;;;;;;12.90;99.90;;;;;;6278925;22;19942;-81
2023/03/19 00:07:27;;;;;;;;;;;12.80;99.90;;;;;;6280749;22;19910;-81
2023/03/19 00:09:52;;;;;;;;;;;12.70;99.90;;;;;;6283502;22;19903;-81
2023/03/19 00:12:18;;;;;;;;;;;12.70;99.90;;;;;;6277467;22;19935;-80
2023/03/19 00:14:43;;;;;;;;;;;12.60;99.90;;;;;;6277191;22;19918;-80
2023/03/19 00:17:10;;;;;;;;;;;12.60;99.90;;;;;;6275922;22;19903;-80
2023/03/19 00:19:35;;;;;;;;;;;12.50;99.90;;;;;;6277779;22;19908;-81
2023/03/19 00:22:00;;;;;;;;;;;12.50;99.90;;;;;;6277397;22;19907;-80
2023/03/19 00:24:26;;;;;;;;;;;12.50;99.90;;;;;;6276957;22;19903;-80
2023/03/19 00:26:52;;;;;;;;;;;12.60;99.90;;;;;;6276949;22;20281;-80
2023/03/19 00:29:17;;;;;;;;;;;12.50;99.90;;;;;;6279619;22;19993;-81
2023/03/19 00:31:43;;;;;;;;;;;12.50;99.90;;;;;;6278937;22;19903;-81
2023/03/19 00:34:08;;;;;;;;;;;12.50;99.90;;;;;;6279734;22;20382;-82
2023/03/19 00:36:34;;;;;;;;;;;12.40;99.90;;;;;;6278965;22;19911;-82
2023/03/19 00:38:59;;;;;;;;;;;12.40;99.90;;;;;;6279347;22;19949;-82
2023/03/19 00:41:25;;;;;;;;;;;12.40;99.90;;;;;;6278875;22;20336;-80
2023/03/19 00:43:51;;;;;;;;;;;12.30;99.90;;;;;;6278582;22;19907;-81
2023/03/19 00:46:16;;;;;;;;;;;12.20;99.90;;;;;;6278724;22;19911;-82
2023/03/19 00:48:42;;;;;;;;;;;12.10;99.90;;;;;;6277138;22;20206;-80
2023/03/19 00:51:08;;;;;;;;;;;12.10;99.90;;;;;;6276643;22;19904;-80
2023/03/19 00:53:38;;;;;;;;;;;11.90;99.90;;;;;;6278222;22;19982;-81
2023/03/19 00:56:04;;;;;;;;;;;11.90;99.90;;;;;;6278282;22;19978;-80
2023/03/19 00:58:30;;;;;;;;;;;11.90;99.90;;;;;;6277285;22;20360;-79
2023/03/19 01:00:55;;;;;;;;;;;11.70;99.90;;;;;;6276664;22;19907;-80
2023/03/19 01:03:21;;;;;;;;;;;11.60;99.90;;;;;;6276156;22;19907;-81
2023/03/19 01:05:48;;;;;;;;;;;11.60;99.90;;;;;;6277194;22;19907;-81
2023/03/19 01:08:14;;;;;;;;;;;11.60;99.90;;;;;;6278681;22;19903;-81
2023/03/19 01:10:40;;;;;;;;;;;11.50;99.90;;;;;;6278637;22;19927;-82
2023/03/19 01:13:05;;;;;;;;;;;11.50;99.90;;;;;;6277147;22;19910;-80
2023/03/19 01:15:34;;;;;;;;;;;11.40;99.90;;;;;;6276826;22;19904;-80
2023/03/19 01:17:59;;;;;;;;;;;11.40;99.90;;;;;;6276751;22;19908;-79
2023/03/19 01:20:26;;;;;;;;;;;11.30;99.90;;;;;;6274982;22;19935;-79
2023/03/19 01:22:51;;;;;;;;;;;11.30;99.90;;;;;;6276258;22;19904;-80
2023/03/19 01:25:16;;;;;;;;;;;11.30;99.90;;;;;;6276893;22;19903;-80
2023/03/19 01:27:42;;;;;;;;;;;11.30;99.90;;;;;;6277335;22;19953;-81
2023/03/19 01:30:09;;;;;;;;;;;11.20;99.90;;;;;;6276662;22;19904;-82
2023/03/19 01:32:34;;;;;;;;;;;11.20;99.90;;;;;;6277437;22;20352;-80
2023/03/19 01:35:00;;;;;;;;;;;11.20;99.90;;;;;;6276449;22;19908;-80
2023/03/19 01:37:26;;;;;;;;;;;11.10;99.90;;;;;;6277043;22;20284;-80
2023/03/19 01:39:51;;;;;;;;;;;11.10;99.90;;;;;;6275837;22;19908;-80
2023/03/19 01:42:17;;;;;;;;;;;11.20;99.90;;;;;;6276985;22;19911;-81
2023/03/19 01:44:43;;;;;;;;;;;11.30;99.90;;;;;;6277428;22;19984;-80
2023/03/19 01:47:25;;;;;;;;;;;11.30;99.90;;;;;;6277823;22;19939;-80
2023/03/19 01:49:54;;;;;;;;;;;11.40;99.90;;;;;;6277668;22;20336;-80
2023/03/19 01:52:21;;;;;;;;;;;11.50;99.90;;;;;;6275959;22;19907;-81
2023/03/19 01:54:46;;;;;;;;;;;11.60;99.90;;;;;;6277131;22;19974;-80
2023/03/19 01:57:12;;;;;;;;;;;11.70;99.90;;;;;;6275468;22;20344;-81
2023/03/19 01:59:42;;;;;;;;;;;11.80;99.90;;;;;;6277528;22;19942;-80
2023/03/19 02:02:17;;;;;;;;;;;11.90;99.90;;;;;;6277353;22;19903;-82
2023/03/19 02:04:43;;;;;;;;;;;12.00;99.90;;;;;;6276880;22;20384;-81
2023/03/19 02:07:10;;;;;;;;;;;12.10;99.90;;;;;;6275346;22;19974;-81
2023/03/19 02:09:36;;;;;;;;;;;12.10;99.90;;;;;;6275391;22;19954;-80
2023/03/19 02:12:01;;;;;;;;;;;12.20;99.90;;;;;;6276733;22;20322;-81
2023/03/19 02:14:27;;;;;;;;;;;12.20;99.90;;;;;;6275491;22;19911;-81
2023/03/19 02:16:52;;;;;;;;;;;12.20;99.90;;;;;;6275123;22;19910;-81
2023/03/19 02:19:30;;;;;;;;;;;12.20;99.90;;;;;;6276644;22;19903;-81
2023/03/19 02:21:57;;;;;;;;;;;12.30;99.90;;;;;;6276851;22;20272;-80
2023/03/19 02:24:31;;;;;;;;;;;12.30;99.90;;;;;;6277030;22;19930;-81
2023/03/19 02:26:57;;;;;;;;;;;12.40;99.90;;;;;;6277308;22;19907;-81
2023/03/19 02:29:22;;;;;;;;;;;12.40;99.90;;;;;;6276303;22;19926;-79
2023/03/19 02:31:47;;;;;;;;;;;12.40;99.90;;;;;;6275943;22;19965;-80
2023/03/19 02:34:19;;;;;;;;;;;12.40;99.90;;;;;;6276013;22;19903;-80
2023/03/19 02:37:05;;;;;;;;;;;12.40;99.90;;;;;;6276184;22;19969;-80
2023/03/19 02:39:31;;;;;;;;;;;12.50;99.90;;;;;;6275978;22;19911;-81
2023/03/19 02:41:57;;;;;;;;;;;12.50;99.90;;;;;;6275515;22;19903;-80
2023/03/19 02:44:22;;;;;;;;;;;12.50;99.90;;;;;;6275963;22;20379;-80
2023/03/19 02:46:48;;;;;;;;;;;12.50;99.90;;;;;;6274494;22;19903;-80
2023/03/19 02:49:14;;;;;;;;;;;12.50;99.90;;;;;;6275962;22;20475;-80
2023/03/19 02:51:40;;;;;;;;;;;12.50;99.90;;;;;;6274494;22;19903;-80
2023/03/19 02:54:06;;;;;;;;;;;12.50;99.90;;;;;;6274650;22;19903;-80
2023/03/19 02:56:32;;;;;;;;;;;12.50;99.90;;;;;;6276340;22;19941;-80
2023/03/19 02:58:58;;;;;;;;;;;12.50;99.90;;;;;;6277841;22;19957;-81
2023/03/19 03:01:23;;;;;;;;;;;12.50;99.90;;;;;;6277807;22;20310;-81
2023/03/19 03:03:49;;;;;;;;;;;12.50;99.90;;;;;;6276211;22;20283;-80
2023/03/19 03:06:14;;;;;;;;;;;12.60;99.90;;;;;;6276890;22;19904;-80
2023/03/19 03:08:40;;;;;;;;;;;12.60;99.90;;;;;;6275752;22;19907;-82
2023/03/19 03:11:06;;;;;;;;;;;12.60;99.90;;;;;;6276899;22;19903;-81
2023/03/19 03:13:32;;;;;;;;;;;12.60;99.90;;;;;;6277241;22;19910;-81
2023/03/19 03:15:57;;;;;;;;;;;12.60;99.90;;;;;;6277250;22;19903;-81
2023/03/19 03:18:23;;;;;;;;;;;12.60;99.90;;;;;;6278837;22;19903;-80
2023/03/19 03:20:48;;;;;;;;;;;12.50;99.90;;;;;;6279439;22;20279;-80
2023/03/19 03:23:14;;;;;;;;;;;12.50;99.90;;;;;;6278358;22;19909;-80
2023/03/19 03:25:40;;;;;;;;;;;12.50;99.90;;;;;;6279482;22;20352;-81
2023/03/19 03:28:05;;;;;;;;;;;12.50;99.90;;;;;;6277037;22;19903;-80
2023/03/19 03:30:31;;;;;;;;;;;12.50;99.90;;;;;;6278893;22;19903;-80
2023/03/19 03:32:56;;;;;;;;;;;12.40;99.90;;;;;;6276825;22;19903;-80
2023/03/19 03:35:22;;;;;;;;;;;12.40;99.90;;;;;;6277899;22;19903;-81
2023/03/19 03:37:48;;;;;;;;;;;12.40;99.90;;;;;;6276709;22;20337;-81
2023/03/19 03:40:14;;;;;;;;;;;12.30;99.90;;;;;;6278353;22;19913;-81
2023/03/19 03:42:40;;;;;;;;;;;12.30;99.90;;;;;;6277658;22;19930;-80
2023/03/19 03:45:06;;;;;;;;;;;12.20;99.90;;;;;;6277933;22;19904;-81
2023/03/19 03:47:32;;;;;;;;;;;12.10;99.90;;;;;;6277820;22;19910;-80
2023/03/19 03:49:57;;;;;;;;;;;12.10;99.90;;;;;;6277520;22;19903;-80
2023/03/19 03:52:23;;;;;;;;;;;12.00;99.90;;;;;;6277361;22;19910;-80
2023/03/19 03:54:48;;;;;;;;;;;12.00;99.90;;;;;;6277619;22;20273;-80
2023/03/19 03:57:14;;;;;;;;;;;11.90;99.90;;;;;;6277549;22;20213;-80
2023/03/19 03:59:40;;;;;;;;;;;11.80;99.90;;;;;;6277684;22;19982;-80
2023/03/19 04:02:06;;;;;;;;;;;11.70;99.90;;;;;;6277248;22;19928;-80
2023/03/19 04:04:32;;;;;;;;;;;11.70;99.90;;;;;;6278168;22;19990;-81
2023/03/19 04:06:58;;;;;;;;;;;11.70;99.90;;;;;;6276456;22;19953;-81
2023/03/19 04:09:23;;;;;;;;;;;11.70;99.90;;;;;;6278018;22;20280;-82
2023/03/19 04:11:49;;;;;;;;;;;11.70;99.90;;;;;;6275848;22;19903;-80
2023/03/19 04:14:14;;;;;;;;;;;11.70;99.90;;;;;;6277554;22;20300;-81
2023/03/19 04:16:40;;;;;;;;;;;11.70;99.90;;;;;;6277834;22;19907;-81
2023/03/19 04:19:06;;;;;;;;;;;11.60;99.90;;;;;;6277811;22;19934;-81
2023/03/19 04:21:32;;;;;;;;;;;11.60;99.90;;;;;;6277304;22;19965;-81
2023/03/19 04:23:57;;;;;;;;;;;11.60;99.90;;;;;;6277137;22;19919;-79
2023/03/19 04:26:23;;;;;;;;;;;11.60;99.90;;;;;;6277236;22;19911;-80
2023/03/19 04:28:48;;;;;;;;;;;11.70;99.90;;;;;;6275427;22;19911;-81
2023/03/19 04:31:14;;;;;;;;;;;11.80;99.90;;;;;;6275363;22;19935;-80
2023/03/19 04:33:39;;;;;;;;;;;11.80;99.90;;;;;;6277707;22;19945;-80
2023/03/19 04:36:05;;;;;;;;;;;11.90;99.90;;;;;;6278537;22;19919;-81
2023/03/19 04:38:31;;;;;;;;;;;11.90;99.90;;;;;;6277306;22;19903;-81
2023/03/19 04:40:57;;;;;;;;;;;11.90;99.90;;;;;;6276956;22;19922;-81
2023/03/19 04:43:22;;;;;;;;;;;11.90;99.90;;;;;;6275853;22;20288;-81
2023/03/19 04:45:48;;;;;;;;;;;11.90;99.90;;;;;;6277311;22;19907;-81
2023/03/19 04:48:14;;;;;;;;;;;12.00;99.90;;;;;;6276244;22;19907;-80
2023/03/19 04:50:40;;;;;;;;;;;12.00;99.90;;;;;;6279017;22;19986;-81
2023/03/19 04:53:06;;;;;;;;;;;12.00;99.90;;;;;;6277825;22;19907;-81
2023/03/19 04:55:32;;;;;;;;;;;12.00;99.90;;;;;;6279629;22;19903;-81
2023/03/19 04:57:58;;;;;;;;;;;12.10;99.90;;;;;;6278881;22;19933;-80
2023/03/19 05:00:24;;;;;;;;;;;12.10;99.90;;;;;;6276491;22;19907;-80
2023/03/19 05:02:49;;;;;;;;;;;12.20;99.90;;;;;;6277884;22;19907;-80
2023/03/19 05:05:15;;;;;;;;;;;12.20;99.90;;;;;;6275410;22;19910;-80
2023/03/19 05:07:41;;;;;;;;;;;12.30;99.90;;;;;;6277469;22;19907;-80
2023/03/19 05:10:07;;;;;;;;;;;12.30;99.90;;;;;;6275434;22;19907;-80
2023/03/19 05:12:32;;;;;;;;;;;12.30;99.90;;;;;;6275540;22;19938;-80
2023/03/19 05:14:58;;;;;;;;;;;12.40;99.90;;;;;;6278427;22;19903;-81
2023/03/19 05:17:24;;;;;;;;;;;12.40;99.90;;;;;;6276501;22;19910;-80
2023/03/19 05:19:51;;;;;;;;;;;12.50;99.90;;;;;;6276663;22;20034;-80
2023/03/19 05:22:16;;;;;;;;;;;12.60;99.90;;;;;;6276449;22;20440;-80
2023/03/19 05:24:42;;;;;;;;;;;12.70;99.90;;;;;;6278820;22;19903;-81
2023/03/19 05:27:07;;;;;;;;;;;12.80;99.90;;;;;;6278819;22;19961;-80
2023/03/19 05:29:33;;;;;;;;;;;12.80;99.90;;;;;;6276880;22;19987;-81
2023/03/19 05:32:01;;;;;;;;;;;12.80;99.90;;;;;;6276859;22;19978;-80
2023/03/19 05:34:27;;;;;;;;;;;12.80;99.90;;;;;;6278012;22;19904;-80
2023/03/19 05:36:53;;;;;;;;;;;12.80;99.90;;;;;;6278037;22;20343;-80
2023/03/19 05:39:19;;;;;;;;;;;12.70;99.90;;;;;;6276005;22;19903;-81
2023/03/19 05:41:44;;;;;;;;;;;12.60;99.90;;;;;;6277438;22;20265;-81
2023/03/19 05:44:10;;;;;;;;;;;12.50;99.90;;;;;;6276353;22;19911;-80
2023/03/19 05:46:35;;;;;;;;;;;12.40;99.90;;;;;;6275322;22;20229;-80
2023/03/19 05:49:01;;;;;;;;;;;12.40;99.90;;;;;;6278138;22;19941;-80
2023/03/19 05:51:26;;;;;;;;;;;12.30;99.90;;;;;;6277144;22;19903;-81
2023/03/19 05:53:52;;;;;;;;;;;12.20;99.90;;;;;;6276884;22;20237;-80
2023/03/19 05:56:17;;;;;;;;;;;12.20;99.90;;;;;;6276384;22;19904;-80
2023/03/19 05:58:43;;;;;;;;;;;12.30;99.90;;;;;;6277390;22;19961;-81
2023/03/19 06:01:08;;;;;;;;;;;12.40;99.90;;;;;;6276988;22;19915;-81
2023/03/19 06:03:33;;;;;;;;;;;12.40;99.90;;;;;;6276256;22;20335;-80
2023/03/19 06:06:00;;;;;;;;;;;12.50;99.90;;;;;;6276208;22;19904;-80
2023/03/19 06:08:25;;;;;;;;;;;12.50;99.90;;;;;;6276434;22;20336;-80
2023/03/19 06:10:51;;;;;;;;;;;12.60;99.90;;;;;;6276319;22;19907;-80
2023/03/19 06:13:17;;;;;;;;;;;12.60;99.90;;;;;;6275995;22;19903;-81
2023/03/19 06:15:42;;;;;;;;;;;12.70;99.90;;;;;;6276542;22;19903;-80
2023/03/19 06:18:07;;;;;;;;;;;12.70;99.90;;;;;;6277378;22;19904;-81
2023/03/19 06:20:33;;;;;;;;;;;12.70;99.90;;;;;;6279658;22;19912;-81
2023/03/19 06:22:59;;;;;;;;;;;12.70;99.90;;;;;;6276567;22;19950;-80
2023/03/19 06:25:24;;;;;;;;;;;12.80;99.90;;;;;;6274979;22;20241;-80
2023/03/19 06:27:50;;;;;;;;;;;12.80;99.90;;;;;;6276858;22;19990;-80
2023/03/19 06:30:15;;;;;;;;;;;12.80;99.90;;;;;;6276706;22;19903;-80
2023/03/19 06:32:41;;;;;;;;;;;12.80;99.90;;;;;;6275832;22;19912;-80
2023/03/19 06:35:07;;;;;;;;;;;12.80;99.90;;;;;;6276189;22;19907;-80
2023/03/19 06:37:33;;;;;;;;;;;12.80;99.90;;;;;;6276409;22;19912;-81
2023/03/19 06:39:58;;;;;;;;;;;12.90;99.90;;;;;;6276544;22;19959;-81
2023/03/19 06:42:24;;;;;;;;;;;12.90;99.90;;;;;;6277768;22;19982;-80
2023/03/19 06:44:49;;;;;;;;;;;13.00;99.90;;;;;;6275656;22;19907;-81
2023/03/19 06:47:15;;;;;;;;;;;13.00;99.90;;;;;;6276188;22;19919;-81
2023/03/19 06:49:40;;;;;;;;;;;13.00;99.90;;;;;;6277897;22;20256;-81
2023/03/19 06:52:06;;;;;;;;;;;13.00;99.90;;;;;;6278046;22;19907;-81
2023/03/19 06:54:31;;;;;;;;;;;13.00;99.90;;;;;;6275197;22;19904;-80
2023/03/19 06:56:57;;;;;;;;;;;13.10;99.90;;;;;;6275886;22;19907;-80
2023/03/19 06:59:22;;;;;;;;;;;13.10;99.90;;;;;;6274210;22;19933;-80
2023/03/19 07:01:48;;;;;;;;;;;13.20;99.90;;;;;;6275467;22;19903;-80
2023/03/19 07:04:13;;;;;;;;;;;13.20;99.90;;;;;;6274188;22;19910;-80
2023/03/19 07:06:39;;;;;;;;;;;13.20;99.90;;;;;;6275699;22;20222;-80
2023/03/19 07:09:04;;;;;;;;;;;13.30;99.90;;;;;;6276097;22;19903;-80
2023/03/19 07:11:30;;;;;;;;;;;13.30;99.90;;;;;;6275458;22;19914;-80
2023/03/19 07:13:57;;;;;;;;;;;13.40;99.90;;;;;;6244431;22;20166;-80
2023/03/19 07:16:23;;;;;;;;;;;13.50;99.90;;;;;;6245163;22;19910;-80
2023/03/19 07:18:49;;;;;;;;;;;13.60;99.90;;;;;;6245207;22;19958;-80
2023/03/19 07:21:14;;;;;;;;;;;13.80;99.90;;;;;;6244599;23;19947;-80
2023/03/19 07:23:40;;;;;;;;;;;13.90;99.90;;;;;;6245337;22;19907;-80
2023/03/19 07:26:05;;;;;;;;;;;14.10;99.90;;;;;;6245799;22;19903;-81
2023/03/19 07:28:31;;;;;;;;;;;14.10;99.90;;;;;;6243909;23;19904;-80
2023/03/19 07:30:57;;;;;;;;;;;14.20;99.90;;;;;;6243112;23;19986;-80
2023/03/19 07:33:22;;;;;;;;;;;14.20;99.90;;;;;;6268971;22;19904;-81
2023/03/19 07:35:48;;;;;;;;;;;14.30;99.90;;;;;;6244985;22;19915;-80
2023/03/19 07:38:13;;;;;;;;;;;14.30;99.90;;;;;;6245734;23;19961;-82
2023/03/19 07:40:39;;;;;;;;;;;14.30;99.90;;;;;;6245957;23;19907;-81
2023/03/19 07:43:04;;;;;;;;;;;14.30;99.90;;;;;;6245459;22;19903;-80
2023/03/19 07:45:30;;;;;;;;;;;14.20;99.90;;;;;;6269488;22;19908;-82
2023/03/19 07:47:55;;;;;;;;;;;14.10;99.90;;;;;;6246001;23;19939;-81
2023/03/19 07:50:21;;;;;;;;;;;14.10;99.90;;;;;;6245861;23;19931;-81
2023/03/19 07:52:47;;;;;;;;;;;14.20;99.90;;;;;;6244257;23;20241;-81
2023/03/19 07:55:13;;;;;;;;;;;14.20;99.90;;;;;;6245977;22;19919;-81
2023/03/19 07:57:38;;;;;;;;;;;14.40;99.90;;;;;;6246145;22;20253;-82
2023/03/19 08:00:04;;;;;;;;;;;14.70;99.90;;;;;;6245156;23;19911;-81
2023/03/19 08:02:30;;;;;;;;;;;15.00;99.90;;;;;;6245799;22;19918;-81
2023/03/19 08:04:55;;;;;;;;;;;15.10;99.90;;;;;;6246298;23;20337;-81
2023/03/19 08:07:21;;;;;;;;;;;15.20;99.90;;;;;;6248703;22;19957;-81
2023/03/19 08:09:47;;;;;;;;;;;15.40;99.90;;;;;;6248492;22;20029;-81
2023/03/19 08:12:12;;;;;;;;;;;15.60;99.90;;;;;;6247351;22;20385;-82
2023/03/19 08:14:38;;;;;;;;;;;15.80;99.90;;;;;;6247669;22;20381;-81
2023/03/19 08:17:03;;;;;;;;;;;16.00;99.90;;;;;;6247330;23;19911;-80
2023/03/19 08:19:29;;;;;;;;;;;16.10;99.90;;;;;;6247836;22;19974;-81
2023/03/19 08:21:55;;;;;;;;;;;16.20;99.90;;;;;;6247475;23;20257;-81
2023/03/19 08:24:20;;;;;;;;;;;16.20;99.90;;;;;;6247547;23;20291;-81
2023/03/19 08:26:46;;;;;;;;;;;16.10;99.90;;;;;;6248507;23;20010;-82
2023/03/19 08:29:11;;;;;;;;;;;16.10;99.90;;;;;;6247825;23;19903;-81
2023/03/19 08:31:37;;;;;;;;;;;15.90;99.90;;;;;;6246233;23;20380;-81
2023/03/19 08:34:03;;;;;;;;;;;15.90;99.90;;;;;;6246963;22;19931;-82
2023/03/19 08:36:29;;;;;;;;;;;15.80;99.90;;;;;;6247945;22;20318;-81
2023/03/19 08:38:55;;;;;;;;;;;15.70;99.90;;;;;;6247731;22;19904;-81
2023/03/19 08:41:21;;;;;;;;;;;15.70;99.90;;;;;;6247036;22;20249;-81
2023/03/19 08:43:46;;;;;;;;;;;16.00;99.90;;;;;;6246660;22;19903;-81
2023/03/19 08:46:12;;;;;;;;;;;16.30;99.90;;;;;;6246878;23;19910;-82
2023/03/19 08:48:37;;;;;;;;;;;16.50;99.90;;;;;;6247561;22;20322;-82
2023/03/19 08:51:03;;;;;;;;;;;16.60;99.90;;;;;;6246032;23;20348;-80
2023/03/19 08:53:28;;;;;;;;;;;16.60;99.90;;;;;;6246468;23;19933;-80
2023/03/19 08:55:55;;;;;;;;;;;16.70;99.90;;;;;;6246313;22;19992;-80
2023/03/19 08:58:21;;;;;;;;;;;16.80;99.90;;;;;;6246470;22;19911;-80
2023/03/19 09:00:46;;;;;;;;;;;16.80;99.90;;;;;;6247117;22;20325;-80
2023/03/19 09:03:12;;;;;;;;;;;16.90;99.90;;;;;;6247508;22;20348;-82
2023/03/19 09:05:38;;;;;;;;;;;17.10;99.90;;;;;;6246924;22;19904;-81
2023/03/19 09:08:03;;;;;;;;;;;17.40;99.90;;;;;;6247193;23;19910;-81
2023/03/19 09:10:29;;;;;;;;;;;17.40;99.90;;;;;;6245659;23;19927;-80
2023/03/19 09:12:54;;;;;;;;;;;17.60;99.90;;;;;;6246800;23;19977;-81
2023/03/19 09:15:19;;;;;;;;;;;17.50;99.90;;;;;;6246842;23;20244;-82
2023/03/19 09:17:45;;;;;;;;;;;17.30;99.90;;;;;;6246266;23;19947;-80
2023/03/19 09:20:10;;;;;;;;;;;17.10;99.90;;;;;;6246410;23;19954;-81
2023/03/19 09:22:36;;;;;;;;;;;17.20;99.90;;;;;;6244429;23;19904;-82
2023/03/19 09:25:02;;;;;;;;;;;17.30;99.90;;;;;;6246085;23;20236;-80
2023/03/19 09:27:27;;;;;;;;;;;17.90;99.90;;;;;;6246354;22;19938;-80
2023/03/19 09:29:53;;;;;;;;;;;18.20;99.90;;;;;;6246282;23;19904;-81
2023/03/19 09:32:18;;;;;;;;;;;18.40;99.90;;;;;;6245840;22;19904;-81
2023/03/19 09:34:45;;;;;;;;;;;18.30;99.90;;;;;;6244549;23;19903;-81
2023/03/19 09:37:10;;;;;;;;;;;18.30;99.90;;;;;;6246176;22;19915;-81
2023/03/19 09:39:36;;;;;;;;;;;18.50;99.90;;;;;;6245897;23;20356;-82
2023/03/19 09:42:11;;;;;;;;;;;18.50;99.90;;;;;;6246550;23;19904;-80
2023/03/19 09:44:38;;;;;;;;;;;18.40;99.90;;;;;;6244733;23;19911;-81
2023/03/19 09:47:03;;;;;;;;;;;18.20;99.90;;;;;;6246251;22;19904;-80
2023/03/19 09:49:35;;;;;;;;;;;18.10;99.90;;;;;;6246066;23;19914;-80
2023/03/19 09:52:21;;;;;;;;;;;18.00;99.90;;;;;;6245569;22;19979;-80
2023/03/19 09:54:48;;;;;;;;;;;17.70;99.90;;;;;;6183934;22;19908;-80
2023/03/19 09:57:14;;;;;;;;;;;17.60;99.90;;;;;;6246020;22;19908;-81
2023/03/19 09:59:39;;;;;;;;;;;17.60;99.90;;;;;;6245691;22;20265;-81
2023/03/19 10:02:14;;;;;;;;;;;17.60;99.90;;;;;;6245600;23;20002;-81
2023/03/19 10:04:42;;;;;;;;;;;18.10;99.90;;;;;;6245594;22;19974;-80
2023/03/19 10:07:14;;;;;;;;;;;18.30;99.90;;;;;;6245803;22;19982;-82
2023/03/19 10:09:53;;;;;;;;;;;18.30;99.90;;;;;;6243982;23;19912;-81
2023/03/19 10:12:38;;;;;;;;;;;18.40;99.90;;;;;;6245608;22;20241;-80
2023/03/19 10:15:16;;;;;;;;;;;18.30;99.90;;;;;;6244548;23;19987;-82
2023/03/19 10:17:50;;;;;;;;;;;18.20;99.90;;;;;;6244516;23;19926;-81
2023/03/19 10:20:18;;;;;;;;;;;18.30;99.90;;;;;;6246427;22;20005;-80
2023/03/19 10:22:48;;;;;;;;;;;18.30;99.90;;;;;;6246513;22;19911;-82
2023/03/19 10:25:19;;;;;;;;;;;18.00;99.90;;;;;;6244185;23;20326;-80
2023/03/19 10:27:46;;;;;;;;;;;18.20;99.90;;;;;;6245623;22;19939;-81
2023/03/19 10:30:15;;;;;;;;;;;18.30;99.90;;;;;;6246295;22;19903;-83
2023/03/19 10:32:42;;;;;;;;;;;18.30;99.90;;;;;;6245941;22;19904;-82
2023/03/19 10:35:17;;;;;;;;;;;18.20;99.90;;;;;;6246414;22;20245;-81
2023/03/19 10:37:42;;;;;;;;;;;18.40;99.90;;;;;;6245093;23;19974;-83
2023/03/19 10:40:18;;;;;;;;;;;18.40;99.90;;;;;;6244960;23;20330;-81
2023/03/19 10:42:47;;;;;;;;;;;18.30;99.90;;;;;;6245136;22;20326;-82
2023/03/19 10:45:19;;;;;;;;;;;18.40;99.90;;;;;;6246382;22;19926;-83
2023/03/19 10:47:45;;;;;;;;;;;18.60;99.90;;;;;;6249575;22;19911;-83
2023/03/19 10:50:15;;;;;;;;;;;18.60;99.90;;;;;;6246819;22;19904;-82
2023/03/19 10:52:41;;;;;;;;;;;18.40;99.90;;;;;;6245835;22;19939;-82
2023/03/19 10:55:15;;;;;;;;;;;18.20;99.90;;;;;;6163814;22;19921;-83
2023/03/19 10:57:44;;;;;;;;;;;18.00;99.90;;;;;;6104939;23;20227;-83
2023/03/19 11:00:17;;;;;;;;;;;17.80;99.90;;;;;;6105289;23;19917;-83
2023/03/19 11:02:53;;;;;;;;;;;17.40;99.90;;;;;;6131158;23;19928;-84
2023/03/19 11:05:19;;;;;;;;;;;17.00;99.90;;;;;;6102238;23;19912;-84
2023/03/19 11:07:47;;;;;;;;;;;16.40;99.90;;;;;;6102662;23;19906;-83
2023/03/19 11:10:15;;;;;;;;;;;15.80;99.90;;;;;;6102166;23;19928;-84
2023/03/19 11:12:40;;;;;;;;;;;15.40;99.90;;;;;;6101528;23;19953;-84
2023/03/19 11:15:18;;;;;;;;;;;15.10;99.90;;;;;;6127658;23;19909;-84
2023/03/19 11:17:45;;;;;;;;;;;15.00;99.90;;;;;;6102199;23;19941;-84
2023/03/19 11:20:26;;;;;;;;;;;15.00;99.90;;;;;;6126791;23;20405;-83
2023/03/19 11:22:53;;;;;;;;;;;15.00;99.90;;;;;;6102068;23;20357;-84
2023/03/19 11:25:42;;;;;;;;;;;14.80;99.90;;;;;;6101699;23;19904;-83
2023/03/19 11:28:08;;;;;;;;;;;14.80;99.90;;;;;;6087045;23;19905;-83
2023/03/19 11:30:53;;;;;;;;;;;14.60;99.90;;;;;;6099320;23;19912;-84
2023/03/19 11:33:36;;;;;;;;;;;14.40;99.90;;;;;;6125229;23;19905;-82
2023/03/19 11:36:14;;;;;;;;;;;14.40;99.90;;;;;;6097716;23;19928;-83
2023/03/19 11:38:39;;;;;;;;;;;14.50;99.90;;;;;;6100403;23;20293;-82
2023/03/19 11:41:22;;;;;;;;;;;14.50;99.90;;;;;;6099268;23;19912;-83
2023/03/19 11:43:48;;;;;;;;;;;14.60;99.90;;;;;;6123731;23;19912;-84
2023/03/19 11:46:32;;;;;;;;;;;14.80;99.90;;;;;;6100216;23;19905;-83
2023/03/19 11:49:12;;;;;;;;;;;15.20;99.90;;;;;;6099384;23;19905;-83
2023/03/19 11:51:37;;;;;;;;;;;15.90;99.90;;;;;;6100205;23;19912;-83
2023/03/19 11:54:22;;;;;;;;;;;17.00;99.90;;;;;;6100018;23;19913;-84
2023/03/19 11:56:54;;;;;;;;;;;18.20;99.90;;;;;;6100991;23;19935;-83
2023/03/19 11:59:24;;;;;;;;;;;18.80;99.90;;;;;;6127735;23;19909;-83
2023/03/19 12:02:09;;;;;;;;;;;19.20;99.90;;;;;;6101657;23;19962;-84
2023/03/19 12:04:53;;;;;;;;;;;19.60;99.90;;;;;;6101342;23;19912;-84
2023/03/19 12:07:42;;;;;;;;;;;19.80;99.90;;;;;;6101601;23;19905;-83
2023/03/19 12:10:26;;;;;;;;;;;20.00;99.90;;;;;;6059947;23;19996;-83
2023/03/19 12:12:55;;;;;;;;;;;20.40;99.90;;;;;;6099782;23;19913;-84
2023/03/19 12:15:20;;;;;;;;;;;23.20;99.90;;;;;;6127018;23;19905;-83
2023/03/19 12:17:57;;;;;;;;;;;23.90;99.90;;;;;;6127312;23;19911;-84
2023/03/19 12:20:41;;;;;;;;;;;23.50;99.90;;;;;;6100559;23;19971;-83
2023/03/19 12:23:19;;;;;;;;;;;23.00;99.90;;;;;;6126752;23;19905;-83
2023/03/19 12:25:59;;;;;;;;;;;23.40;99.90;;;;;;6105298;23;19958;-84
2023/03/19 12:28:39;;;;;;;;;;;23.80;99.90;;;;;;6105491;23;19909;-84
2023/03/19 12:31:17;;;;;;;;;;;23.50;99.90;;;;;;6104214;23;19905;-84
2023/03/19 12:34:04;;;;;;;;;;;22.90;99.90;;;;;;6103133;23;19912;-84
2023/03/19 12:36:32;;;;;;;;;;;22.40;99.90;;;;;;6103130;23;20242;-83
2023/03/19 12:39:01;;;;;;;;;;;22.00;99.90;;;;;;6101642;23;20243;-83
2023/03/19 12:41:30;;;;;;;;;;;22.00;99.90;;;;;;6130096;23;19908;-84
2023/03/19 12:44:12;;;;;;;;;;;22.50;99.90;;;;;;6106436;23;20250;-84
2023/03/19 12:46:37;;;;;;;;;;;24.50;99.90;;;;;;6104797;23;19912;-84
2023/03/19 12:49:17;;;;;;;;;;;26.60;99.90;;;;;;6103763;23;19905;-84
2023/03/19 12:51:45;;;;;;;;;;;26.80;99.90;;;;;;6134962;23;19913;-84
2023/03/19 12:54:19;;;;;;;;;;;25.70;94.00;;;;;;6109866;23;19957;-83
2023/03/19 12:56:48;;;;;;;;;;;25.10;98.80;;;;;;6108756;23;20338;-83
2023/03/19 12:59:19;;;;;;;;;;;24.80;99.90;;;;;;6105673;23;19992;-84
2023/03/19 13:01:47;;;;;;;;;;;24.30;99.90;;;;;;6104114;23;19905;-84
2023/03/19 13:04:25;;;;;;;;;;;23.70;99.90;;;;;;6105198;23;19909;-84
2023/03/19 13:06:53;;;;;;;;;;;23.10;99.90;;;;;;6101438;23;19912;-85
2023/03/19 13:09:28;;;;;;;;;;;22.70;99.90;;;;;;6098237;23;19908;-84
2023/03/19 13:11:58;;;;;;;;;;;22.30;99.90;;;;;;6097366;23;20295;-85
2023/03/19 13:14:28;;;;;;;;;;;21.80;99.90;;;;;;6097643;23;20220;-84
2023/03/19 13:16:54;;;;;;;;;;;21.40;99.90;;;;;;6122708;23;19905;-84
2023/03/19 13:19:22;;;;;;;;;;;21.30;99.90;;;;;;6097329;23;19905;-84
2023/03/19 13:21:50;;;;;;;;;;;21.20;99.90;;;;;;6101623;23;19911;-84
2023/03/19 13:24:20;;;;;;;;;;;20.80;99.90;;;;;;6101734;23;19905;-84
2023/03/19 13:26:46;;;;;;;;;;;20.50;99.90;;;;;;6102879;23;19951;-84
2023/03/19 13:29:20;;;;;;;;;;;20.00;99.90;;;;;;6102472;23;19927;-85
2023/03/19 13:31:46;;;;;;;;;;;19.30;99.90;;;;;;6103068;23;19913;-84
2023/03/19 13:34:20;;;;;;;;;;;19.00;99.90;;;;;;6102915;23;20335;-84
2023/03/19 13:36:46;;;;;;;;;;;18.60;99.90;;;;;;6129952;23;20293;-84
2023/03/19 13:39:14;;;;;;;;;;;18.70;99.90;;;;;;6106260;23;19953;-84
2023/03/19 13:41:41;;;;;;;;;;;18.80;99.90;;;;;;6105175;23;19909;-85
2023/03/19 13:44:25;;;;;;;;;;;18.90;99.90;;;;;;6105617;23;19912;-83
2023/03/19 13:46:51;;;;;;;;;;;18.90;99.90;;;;;;6104572;23;19908;-84
2023/03/19 13:49:29;;;;;;;;;;;18.80;99.90;;;;;;6107165;23;20352;-84
2023/03/19 13:51:59;;;;;;;;;;;18.70;99.90;;;;;;6098756;23;19909;-83
2023/03/19 13:54:35;;;;;;;;;;;18.70;99.90;;;;;;6099805;23;19913;-84
2023/03/19 13:57:07;;;;;;;;;;;18.80;99.90;;;;;;6098343;23;19929;-84
2023/03/19 13:59:34;;;;;;;;;;;19.30;99.90;;;;;;6097720;23;19927;-84
2023/03/19 14:02:02;;;;;;;;;;;19.80;99.90;;;;;;6122379;23;19905;-84
2023/03/19 14:04:29;;;;;;;;;;;20.10;99.90;;;;;;6099654;23;19912;-84
2023/03/19 14:07:07;;;;;;;;;;;20.20;99.90;;;;;;6099440;23;19984;-85
2023/03/19 14:09:33;;;;;;;;;;;20.10;99.90;;;;;;6101306;23;19952;-83
2023/03/19 14:12:09;;;;;;;;;;;20.10;99.90;;;;;;6128812;23;20079;-84
2023/03/19 14:14:39;;;;;;;;;;;20.20;99.90;;;;;;6105353;23;19905;-84
2023/03/19 14:17:10;;;;;;;;;;;20.40;99.90;;;;;;6105028;23;20299;-83
2023/03/19 14:19:39;;;;;;;;;;;20.40;99.90;;;;;;6133550;23;19906;-84